General Aviation Weather

Text Reports

Enter one or more of the following location identifiers separated by a space:

Zip Code, Four-Character ICAO or Three-Character IATA airport codes.

METAR - Aviation Routine Weather Report
KHVN - New Haven, Connecticut
Updated at 4:53 AM GMT on August 04, 2015 (12:53 AM EDT):
METAR KHVN 040453Z AUTO 21003KT 10SM CLR 24/22 A2982 RMK AO2 SLP097 T02390222 403060194
TAF - Terminal Area Forecast
KHVN - New Haven, Connecticut
Updated at 4:53 AM GMT on August 04, 2015 (12:53 AM EDT):
No TAF is currently available for this location.
Decoded:
No decoded TAF is available.
PIREP - Pilot Weather Report
KHVN - New Haven, Connecticut
Updated at 4:53 AM GMT on August 04, 2015 (12:53 AM EDT):
No PIREP is currently available for this location.
AIRMET - Airmens Meteorological Information
KHVN - New Haven, Connecticut
Updated at 4:53 AM GMT on August 04, 2015 (12:53 AM EDT):
No AIRMET is currently available for this location.
SIGMET - Significant Meteorological Information
KHVN - New Haven, Connecticut
Updated at 4:53 AM GMT on August 04, 2015 (12:53 AM EDT):
No SIGMET is currently available for this location.
NOTAM - Notice to Airmen
KHVN - New Haven, Connecticut
Updated at 4:53 AM GMT on August 04, 2015 (12:53 AM EDT):
No NOTAM is currently available for this location.
Forecast Area
KHVN - New Haven, Connecticut
Updated at 4:53 AM GMT on August 04, 2015 (12:53 AM EDT):
No NOTAM is currently available for this location.
Aviation Weather Maps